Terminal Aerodrome Forecast
Issued by NWS

Home | Current Version | Previous Version | Text Only | Print | Product List | Glossary On
Versions: 1 2 3 4 5 6 7 8 9 10 11 12 13 14 15 16
000
FTUS43 KDLH 220900 AAA
TAFBRD
TAF AMD
KBRD 220927Z 2209/2306 15010KT P6SM FEW120
     FM221200 16012G18KT P6SM SCT100
     FM221800 16015G25KT P6SM VCSH BKN050
     FM230200 17010KT P6SM -RA SCT025 BKN050=

USA.gov is the U.S. government's official web portal to all federal, state and local government web resources and services.